createdAt,value
2018-06-23T00:00:44.450Z,42.00
2018-06-23T00:03:11.300Z,42.00
2018-06-23T00:05:38.319Z,41.90
2018-06-23T00:08:05.144Z,42.00
2018-06-23T00:10:31.976Z,42.00
2018-06-23T00:12:58.802Z,42.00
2018-06-23T00:15:25.694Z,42.00
2018-06-23T00:17:52.530Z,41.90
2018-06-23T00:20:19.371Z,41.90
2018-06-23T00:22:46.185Z,42.00
2018-06-23T00:25:13.069Z,41.90
2018-06-23T00:27:39.918Z,42.00
2018-06-23T00:30:06.732Z,42.10
2018-06-23T00:32:33.570Z,42.00
2018-06-23T00:35:00.451Z,42.00
2018-06-23T00:37:27.262Z,42.00
2018-06-23T00:39:54.764Z,42.10
2018-06-23T00:42:21.602Z,42.10
2018-06-23T00:44:48.627Z,42.10
2018-06-23T00:47:15.720Z,42.10
2018-06-23T00:49:42.525Z,42.10
2018-06-23T00:52:09.366Z,42.10
2018-06-23T00:54:36.202Z,42.10
2018-06-23T00:57:03.030Z,42.10
2018-06-23T00:59:29.846Z,42.10
2018-06-23T01:01:56.661Z,42.00
2018-06-23T01:04:23.584Z,42.20
2018-06-23T01:06:50.391Z,42.10
2018-06-23T01:09:17.214Z,42.10
2018-06-23T01:11:44.031Z,42.00
2018-06-23T01:14:10.958Z,42.00
2018-06-23T01:16:37.787Z,42.10
2018-06-23T01:19:04.617Z,42.10
2018-06-23T01:21:31.453Z,42.10
2018-06-23T01:23:58.327Z,42.10
2018-06-23T01:26:25.143Z,42.10
2018-06-23T01:28:51.985Z,42.10
2018-06-23T01:31:18.808Z,42.70
2018-06-23T01:33:45.690Z,42.10
2018-06-23T01:36:12.538Z,42.10
2018-06-23T01:38:39.370Z,42.10
2018-06-23T01:41:06.190Z,42.20
2018-06-23T01:43:33.021Z,42.20
2018-06-23T01:45:59.855Z,42.10
2018-06-23T01:48:26.676Z,42.10
2018-06-23T01:50:53.534Z,42.10
2018-06-23T01:53:20.325Z,42.10
2018-06-23T01:55:47.150Z,42.10
2018-06-23T01:58:13.973Z,42.10
2018-06-23T02:00:40.805Z,42.10
2018-06-23T02:03:07.627Z,42.10
2018-06-23T02:05:34.651Z,42.10
2018-06-23T02:08:01.483Z,42.10
2018-06-23T02:10:28.303Z,42.00
2018-06-23T02:12:55.136Z,42.70
2018-06-23T02:15:22.014Z,42.10
2018-06-23T02:17:48.849Z,42.20
2018-06-23T02:20:15.707Z,42.10
2018-06-23T02:22:42.522Z,42.00
2018-06-23T02:25:09.397Z,42.10
2018-06-23T02:27:36.231Z,42.10
2018-06-23T02:30:03.056Z,42.10
2018-06-23T02:32:29.919Z,42.10
2018-06-23T02:34:56.775Z,42.10
2018-06-23T02:37:23.590Z,42.10
2018-06-23T02:39:50.422Z,42.10
2018-06-23T02:42:17.246Z,42.70
2018-06-23T02:44:44.186Z,42.10
2018-06-23T02:47:11.634Z,42.10
2018-06-23T02:49:38.605Z,42.10
2018-06-23T02:52:05.485Z,42.10
2018-06-23T02:54:32.335Z,42.10
2018-06-23T02:59:26.286Z,42.10
2018-06-23T03:01:53.119Z,42.10
2018-06-23T03:04:20.103Z,42.10
2018-06-23T03:06:46.928Z,42.10
2018-06-23T03:09:13.760Z,42.00
2018-06-23T03:11:40.585Z,42.00
2018-06-23T03:14:07.476Z,42.10
2018-06-23T03:16:34.299Z,42.00
2018-06-23T03:19:01.136Z,42.00
2018-06-23T03:21:27.951Z,42.10
2018-06-23T03:23:54.856Z,42.00
2018-06-23T03:26:21.683Z,42.00
2018-06-23T03:28:48.506Z,42.00
2018-06-23T03:31:15.331Z,42.40
2018-06-23T03:33:42.232Z,42.00
2018-06-23T03:36:09.038Z,42.10
2018-06-23T03:38:37.049Z,42.00
2018-06-23T03:41:03.842Z,42.00
2018-06-23T03:43:30.657Z,42.00
2018-06-23T03:45:57.491Z,42.10
2018-06-23T03:48:24.318Z,42.10
2018-06-23T03:50:51.147Z,42.70
2018-06-23T03:53:17.961Z,42.10
2018-06-23T03:55:44.787Z,42.10
2018-06-23T03:58:11.616Z,42.10
2018-06-23T04:00:38.445Z,42.10
2018-06-23T04:03:05.266Z,42.20
2018-06-23T04:05:32.206Z,42.10
2018-06-23T04:07:59.033Z,42.10
2018-06-23T04:10:25.861Z,42.20
2018-06-23T04:12:52.681Z,42.10
2018-06-23T04:15:19.583Z,42.00
2018-06-23T04:17:46.417Z,42.10
2018-06-23T04:20:13.238Z,42.10
2018-06-23T04:22:40.066Z,42.10
2018-06-23T04:25:06.950Z,42.10
2018-06-23T04:27:33.790Z,42.10
2018-06-23T04:30:00.631Z,42.20
2018-06-23T04:32:27.445Z,42.10
2018-06-23T04:34:54.322Z,42.20
2018-06-23T04:37:21.152Z,42.20
2018-06-23T04:39:47.990Z,42.10
2018-06-23T04:42:15.050Z,42.20
2018-06-23T04:44:41.894Z,42.20
2018-06-23T04:47:08.719Z,42.20
2018-06-23T04:49:35.538Z,42.20
2018-06-23T04:52:02.368Z,42.20
2018-06-23T04:54:29.265Z,42.20
2018-06-23T04:56:56.078Z,42.30
2018-06-23T04:59:22.901Z,42.20
2018-06-23T05:01:49.790Z,42.30
2018-06-23T05:04:16.646Z,42.20
2018-06-23T05:06:43.469Z,42.20
2018-06-23T05:09:10.302Z,42.20
2018-06-23T05:11:37.119Z,42.20
2018-06-23T05:14:04.020Z,42.20
2018-06-23T05:16:30.841Z,42.30
2018-06-23T05:18:58.506Z,42.30
2018-06-23T05:21:25.342Z,42.30
2018-06-23T05:23:52.209Z,42.30
2018-06-23T05:26:19.030Z,42.30
2018-06-23T05:28:45.853Z,42.30
2018-06-23T05:31:12.682Z,42.40
2018-06-23T05:33:39.577Z,42.40
2018-06-23T05:36:06.400Z,42.40
2018-06-23T05:38:33.225Z,42.50
2018-06-23T05:41:00.107Z,42.50
2018-06-23T05:45:54.063Z,42.50
2018-06-23T05:48:20.894Z,42.50
2018-06-23T05:50:47.728Z,42.50
2018-06-23T05:53:14.548Z,42.40
2018-06-23T05:55:41.367Z,42.50
2018-06-23T05:58:08.212Z,42.50
2018-06-23T06:00:35.033Z,42.50
2018-06-23T06:03:01.883Z,42.60
2018-06-23T06:05:28.733Z,42.60
2018-06-23T06:07:55.563Z,42.60
2018-06-23T06:10:22.382Z,42.60
2018-06-23T06:12:49.211Z,42.70
2018-06-23T06:15:16.100Z,42.70
2018-06-23T06:17:42.940Z,42.70
2018-06-23T06:20:09.760Z,42.70
2018-06-23T06:22:36.789Z,42.60
2018-06-23T06:25:03.689Z,39.40
2018-06-23T06:27:30.514Z,38.90
2018-06-23T06:29:57.338Z,38.90
2018-06-23T06:32:24.184Z,39.40
2018-06-23T06:34:51.266Z,38.80
2018-06-23T06:37:18.084Z,40.10
2018-06-23T06:39:44.907Z,38.80
2018-06-23T06:42:11.731Z,39.00
2018-06-23T06:44:38.665Z,38.90
2018-06-23T06:47:05.448Z,38.70
2018-06-23T06:49:32.260Z,39.00
2018-06-23T06:51:59.101Z,38.80
2018-06-23T06:54:26.013Z,38.50
2018-06-23T06:56:52.858Z,38.80
2018-06-23T06:59:19.684Z,39.00
2018-06-23T07:01:46.527Z,38.80
2018-06-23T07:04:13.369Z,38.80
2018-06-23T07:06:40.200Z,39.50
2018-06-23T07:09:07.021Z,39.10
2018-06-23T07:11:33.842Z,38.90
2018-06-23T07:14:00.758Z,39.20
2018-06-23T07:16:27.572Z,38.90
2018-06-23T07:18:54.412Z,39.00
2018-06-23T07:21:21.225Z,38.90
2018-06-23T07:23:48.179Z,39.30
2018-06-23T07:26:14.935Z,39.40
2018-06-23T07:28:41.791Z,38.80
2018-06-23T07:31:08.602Z,39.20
2018-06-23T07:33:35.436Z,38.70
2018-06-23T07:36:02.247Z,39.30
2018-06-23T07:38:29.103Z,39.80
2018-06-23T07:40:55.903Z,40.20
2018-06-23T07:43:22.726Z,40.70
2018-06-23T07:45:49.558Z,40.20
2018-06-23T07:48:16.384Z,40.20
2018-06-23T07:50:43.220Z,40.00
2018-06-23T07:53:10.138Z,40.30
2018-06-23T07:55:37.086Z,40.50
2018-06-23T07:58:03.910Z,40.30
2018-06-23T08:00:30.739Z,39.50
2018-06-23T08:02:57.595Z,39.60
2018-06-23T08:05:24.437Z,39.80
2018-06-23T08:07:51.450Z,39.70
2018-06-23T08:10:18.288Z,40.20
2018-06-23T08:15:12.529Z,39.60
2018-06-23T08:17:40.352Z,39.50
2018-06-23T08:20:07.193Z,39.70
2018-06-23T08:22:34.277Z,40.10
2018-06-23T08:25:01.551Z,40.50
2018-06-23T08:27:28.374Z,40.10
2018-06-23T08:29:55.208Z,39.30
2018-06-23T08:32:23.198Z,39.50
2018-06-23T08:34:50.253Z,39.50
2018-06-23T08:37:17.097Z,39.70
2018-06-23T08:39:43.904Z,41.70
2018-06-23T08:42:10.730Z,40.10
2018-06-23T08:44:37.625Z,40.50
2018-06-23T08:47:04.458Z,40.40
2018-06-23T08:49:31.337Z,40.10
2018-06-23T08:51:58.129Z,40.30
2018-06-23T08:54:24.993Z,40.10
2018-06-23T08:56:51.916Z,40.50
2018-06-23T08:59:18.851Z,40.40
2018-06-23T09:01:45.786Z,40.20
2018-06-23T09:04:12.855Z,39.90
2018-06-23T09:06:39.722Z,39.60
2018-06-23T09:09:06.661Z,38.90
2018-06-23T09:11:34.122Z,39.30
2018-06-23T09:14:01.236Z,38.90
2018-06-23T09:16:28.134Z,39.30
2018-06-23T09:18:55.073Z,39.00
2018-06-23T09:21:21.877Z,37.90
2018-06-23T09:23:48.748Z,38.90
2018-06-23T09:26:15.571Z,38.40
2018-06-23T09:28:42.394Z,38.10
2018-06-23T09:31:09.233Z,38.20
2018-06-23T09:33:36.062Z,38.00
2018-06-23T09:36:02.968Z,37.80
2018-06-23T09:38:29.787Z,38.40
2018-06-23T09:40:56.665Z,38.40
2018-06-23T09:43:23.571Z,38.40
2018-06-23T09:45:50.433Z,37.70
2018-06-23T09:48:17.300Z,38.10
2018-06-23T09:50:44.126Z,37.40
2018-06-23T09:53:10.986Z,37.20
2018-06-23T09:55:38.517Z,37.20
2018-06-23T09:58:05.374Z,37.40
2018-06-23T10:00:32.214Z,36.50
2018-06-23T10:02:59.180Z,36.90
2018-06-23T10:05:26.164Z,36.70
2018-06-23T10:07:53.077Z,36.60
2018-06-23T10:10:19.922Z,36.80
2018-06-23T10:12:46.747Z,37.00
2018-06-23T10:15:13.674Z,37.40
2018-06-23T10:17:40.534Z,37.20
2018-06-23T10:20:07.343Z,37.60
2018-06-23T10:22:34.212Z,35.90
2018-06-23T10:25:01.071Z,36.80
2018-06-23T10:27:27.935Z,37.20
2018-06-23T10:29:54.708Z,37.00
2018-06-23T10:32:22.225Z,36.80
2018-06-23T10:34:49.274Z,36.30
2018-06-23T10:37:16.086Z,37.20
2018-06-23T10:39:42.950Z,37.00
2018-06-23T10:42:09.764Z,36.80
2018-06-23T10:44:36.609Z,37.50
2018-06-23T10:47:03.432Z,37.70
2018-06-23T10:49:30.253Z,37.40
2018-06-23T10:51:57.111Z,37.10
2018-06-23T10:54:23.991Z,36.70
2018-06-23T10:56:50.812Z,37.10
2018-06-23T10:59:17.654Z,37.70
2018-06-23T11:01:44.480Z,37.70
2018-06-23T11:04:11.346Z,38.00
2018-06-23T11:06:38.164Z,37.90
2018-06-23T11:09:05.042Z,37.90
2018-06-23T11:11:31.986Z,38.00
2018-06-23T11:13:58.924Z,38.70
2018-06-23T11:16:25.778Z,38.20
2018-06-23T11:18:52.612Z,37.80
2018-06-23T11:21:19.445Z,37.10
2018-06-23T11:23:46.517Z,36.90
2018-06-23T11:26:13.340Z,37.70
2018-06-23T11:28:40.164Z,37.90
2018-06-23T11:31:07.042Z,38.00
2018-06-23T11:33:33.855Z,38.10
2018-06-23T11:36:00.683Z,37.40
2018-06-23T11:38:27.507Z,37.10
2018-06-23T11:40:54.337Z,36.60
2018-06-23T11:43:21.165Z,36.60
2018-06-23T11:45:48.133Z,38.40
2018-06-23T11:48:15.173Z,38.40
2018-06-23T11:53:09.199Z,38.80
2018-06-23T11:55:36.127Z,38.00
2018-06-23T11:58:02.936Z,38.30
2018-06-23T12:00:29.771Z,38.30
2018-06-23T12:02:56.597Z,38.20
2018-06-23T12:05:23.462Z,38.30
2018-06-23T12:07:50.308Z,38.30
2018-06-23T12:12:44.254Z,38.20
2018-06-23T12:15:11.241Z,37.70
2018-06-23T12:17:38.078Z,38.00
2018-06-23T12:20:04.926Z,38.10
2018-06-23T12:22:31.768Z,37.20
2018-06-23T12:24:58.680Z,37.20
2018-06-23T12:27:25.488Z,37.30
2018-06-23T12:29:52.317Z,37.60
2018-06-23T12:32:19.628Z,37.60
2018-06-23T12:34:46.615Z,37.60
2018-06-23T12:37:13.434Z,37.60
2018-06-23T12:39:40.258Z,37.70
2018-06-23T12:42:07.083Z,36.70
2018-06-23T12:44:33.957Z,37.20
2018-06-23T12:47:00.825Z,36.90
2018-06-23T12:49:27.641Z,37.60
2018-06-23T12:51:54.470Z,37.70
2018-06-23T12:54:21.338Z,37.70
2018-06-23T12:56:48.165Z,37.10
2018-06-23T12:59:15.029Z,37.20
2018-06-23T13:01:41.851Z,37.50
2018-06-23T13:04:08.715Z,37.50
2018-06-23T13:06:35.524Z,37.20
2018-06-23T13:09:02.347Z,37.30
2018-06-23T13:11:29.213Z,37.00
2018-06-23T13:13:56.067Z,37.10
2018-06-23T13:16:22.943Z,37.20
2018-06-23T13:18:49.762Z,37.30
2018-06-23T13:21:16.590Z,37.50
2018-06-23T13:23:43.464Z,37.20
2018-06-23T13:26:10.287Z,37.20
2018-06-23T13:28:37.139Z,37.20
2018-06-23T13:31:03.974Z,36.70
2018-06-23T13:33:30.797Z,36.70
2018-06-23T13:35:57.659Z,36.90
2018-06-23T13:38:24.486Z,36.90
2018-06-23T13:40:51.317Z,37.20
2018-06-23T13:43:18.477Z,37.50
2018-06-23T13:45:45.433Z,37.60
2018-06-23T13:48:12.243Z,37.40
2018-06-23T13:50:39.117Z,37.40
2018-06-23T13:53:05.950Z,37.20
2018-06-23T13:55:32.822Z,37.20
2018-06-23T13:57:59.691Z,37.30
2018-06-23T14:00:26.526Z,37.20
2018-06-23T14:02:53.358Z,37.20
2018-06-23T14:05:20.385Z,37.30
2018-06-23T14:07:47.217Z,37.30
2018-06-23T14:10:14.039Z,37.30
2018-06-23T14:12:40.862Z,37.10
2018-06-23T14:15:07.784Z,37.30
2018-06-23T14:17:34.613Z,37.50
2018-06-23T14:20:01.433Z,37.40
2018-06-23T14:22:28.255Z,37.20
2018-06-23T14:24:55.137Z,37.30
2018-06-23T14:27:21.955Z,37.20
2018-06-23T14:29:48.778Z,37.20
2018-06-23T14:32:16.272Z,37.00
2018-06-23T14:34:43.121Z,37.10
2018-06-23T14:37:09.973Z,37.20
2018-06-23T14:39:36.803Z,37.40
2018-06-23T14:42:03.630Z,36.90
2018-06-23T14:44:30.506Z,37.20
2018-06-23T14:46:57.333Z,37.60
2018-06-23T14:49:24.156Z,37.40
2018-06-23T14:51:50.978Z,37.90
2018-06-23T14:54:17.883Z,37.90
2018-06-23T14:56:44.727Z,36.40
2018-06-23T14:59:11.570Z,36.60
2018-06-23T15:01:38.505Z,37.10
2018-06-23T15:04:05.443Z,37.50
2018-06-23T15:06:32.269Z,37.20
2018-06-23T15:08:59.085Z,37.00
2018-06-23T15:11:25.915Z,37.30
2018-06-23T15:13:52.804Z,37.30
2018-06-23T15:18:46.776Z,37.40
2018-06-23T15:21:13.598Z,38.00
2018-06-23T15:23:40.629Z,37.30
2018-06-23T15:26:07.434Z,37.60
2018-06-23T15:28:34.269Z,38.30
2018-06-23T15:31:01.091Z,36.90
2018-06-23T15:33:27.972Z,37.00
2018-06-23T15:35:54.744Z,37.40
2018-06-23T15:38:21.564Z,37.10
2018-06-23T15:40:48.401Z,35.50
2018-06-23T15:43:15.223Z,36.50
2018-06-23T15:45:42.050Z,37.80
2018-06-23T15:48:09.057Z,36.80
2018-06-23T15:50:35.867Z,37.40
2018-06-23T15:53:02.724Z,36.00
2018-06-23T15:55:29.545Z,36.50
2018-06-23T15:57:56.363Z,35.00
2018-06-23T16:00:23.896Z,36.00
2018-06-23T16:02:50.740Z,36.20
2018-06-23T16:05:17.746Z,36.20
2018-06-23T16:10:11.762Z,36.90
2018-06-23T16:12:38.572Z,36.20
2018-06-23T16:15:05.518Z,37.40
2018-06-23T16:17:32.341Z,36.30
2018-06-23T16:19:59.156Z,35.30
2018-06-23T16:22:25.985Z,35.50
2018-06-23T16:24:52.885Z,36.10
2018-06-23T16:27:19.708Z,37.40
2018-06-23T16:29:46.678Z,37.60
2018-06-23T16:32:13.484Z,38.40
2018-06-23T16:34:40.605Z,38.20
2018-06-23T16:37:07.322Z,38.00
2018-06-23T16:39:34.156Z,38.00
2018-06-23T16:42:01.001Z,38.00
2018-06-23T16:44:27.838Z,38.20
2018-06-23T16:46:54.675Z,38.50
2018-06-23T16:49:21.496Z,38.40
2018-06-23T16:51:48.316Z,38.50
2018-06-23T16:54:15.229Z,38.70
2018-06-23T16:56:42.091Z,38.70
2018-06-23T16:59:08.858Z,38.70
2018-06-23T17:01:35.682Z,38.70
2018-06-23T17:04:02.643Z,38.80
2018-06-23T17:06:29.417Z,38.90
2018-06-23T17:08:56.258Z,38.80
2018-06-23T17:11:23.103Z,38.80
2018-06-23T17:13:49.950Z,38.80
2018-06-23T17:16:16.767Z,38.90
2018-06-23T17:18:43.594Z,39.00
2018-06-23T17:21:10.439Z,39.00
2018-06-23T17:23:37.313Z,39.10
2018-06-23T17:26:04.168Z,39.30
2018-06-23T17:28:30.978Z,39.40
2018-06-23T17:30:57.820Z,39.40
2018-06-23T17:33:24.698Z,39.40
2018-06-23T17:35:51.528Z,37.50
2018-06-23T17:38:18.357Z,36.60
2018-06-23T17:40:45.227Z,36.80
2018-06-23T17:43:12.051Z,36.50
2018-06-23T17:45:38.877Z,36.70
2018-06-23T17:48:05.702Z,36.90
2018-06-23T17:50:32.542Z,36.80
2018-06-23T17:52:59.368Z,37.20
2018-06-23T17:55:26.291Z,37.20
2018-06-23T17:57:53.251Z,37.10
2018-06-23T18:00:19.962Z,37.90
2018-06-23T18:02:46.789Z,37.90
2018-06-23T18:05:13.646Z,38.50
2018-06-23T18:07:40.479Z,38.40
2018-06-23T18:10:07.299Z,38.50
2018-06-23T18:12:34.148Z,38.80
2018-06-23T18:15:01.037Z,39.00
2018-06-23T18:17:28.661Z,39.20
2018-06-23T18:19:55.485Z,39.40
2018-06-23T18:22:22.305Z,39.30
2018-06-23T18:24:49.212Z,39.20
2018-06-23T18:27:16.040Z,39.40
2018-06-23T18:29:42.866Z,39.40
2018-06-23T18:32:09.689Z,39.40
2018-06-23T18:34:36.585Z,39.30
2018-06-23T18:37:03.408Z,39.40
2018-06-23T18:39:30.235Z,39.30
2018-06-23T18:41:57.052Z,39.40
2018-06-23T18:44:23.957Z,39.90
2018-06-23T18:46:50.796Z,40.20
2018-06-23T18:49:17.631Z,40.10
2018-06-23T18:51:44.487Z,40.20
2018-06-23T18:54:11.329Z,40.70
2018-06-23T18:56:38.155Z,41.20
2018-06-23T18:59:04.986Z,41.00
2018-06-23T19:01:31.809Z,41.10
2018-06-23T19:03:58.702Z,41.10
2018-06-23T19:06:25.582Z,41.60
2018-06-23T19:08:52.462Z,41.40
2018-06-23T19:11:19.202Z,41.40
2018-06-23T19:13:46.338Z,41.70
2018-06-23T19:16:13.156Z,41.80
2018-06-23T19:18:39.985Z,41.90
2018-06-23T19:21:07.004Z,42.20
2018-06-23T19:23:34.301Z,42.10
2018-06-23T19:26:01.106Z,42.50
2018-06-23T19:28:27.917Z,42.40
2018-06-23T19:30:54.741Z,42.40
2018-06-23T19:33:22.695Z,42.40
2018-06-23T19:35:49.512Z,42.50
2018-06-23T19:38:16.336Z,42.60
2018-06-23T19:40:43.155Z,42.70
2018-06-23T19:43:09.988Z,43.20
2018-06-23T19:45:36.868Z,43.00
2018-06-23T19:48:03.682Z,42.80
2018-06-23T19:50:30.515Z,42.60
2018-06-23T19:52:57.343Z,42.60
2018-06-23T19:55:24.246Z,42.80
2018-06-23T19:57:51.071Z,43.00
2018-06-23T20:00:17.896Z,42.90
2018-06-23T20:02:44.715Z,43.20
2018-06-23T20:05:11.612Z,42.80
2018-06-23T20:07:38.447Z,42.70
2018-06-23T20:10:05.278Z,42.80
2018-06-23T20:12:32.125Z,43.70
2018-06-23T20:14:58.988Z,43.60
2018-06-23T20:17:27.096Z,43.20
2018-06-23T20:19:53.909Z,43.00
2018-06-23T20:22:20.737Z,42.90
2018-06-23T20:24:47.595Z,43.40
2018-06-23T20:27:14.425Z,43.30
2018-06-23T20:29:41.267Z,43.40
2018-06-23T20:32:08.075Z,44.10
2018-06-23T20:34:34.962Z,43.90
2018-06-23T20:37:01.781Z,44.20
2018-06-23T20:39:28.607Z,44.50
2018-06-23T20:41:55.431Z,44.60
2018-06-23T20:44:22.350Z,44.70
2018-06-23T20:46:49.180Z,44.90
2018-06-23T20:49:16.018Z,45.30
2018-06-23T20:51:42.847Z,45.20
2018-06-23T20:54:09.699Z,45.50
2018-06-23T20:56:36.518Z,45.30
2018-06-23T20:59:03.408Z,45.20
2018-06-23T21:01:30.351Z,44.80
2018-06-23T21:03:57.276Z,45.30
2018-06-23T21:06:24.103Z,45.30
2018-06-23T21:08:50.944Z,45.50
2018-06-23T21:11:17.769Z,45.70
2018-06-23T21:13:44.689Z,46.00
2018-06-23T21:16:11.485Z,46.10
2018-06-23T21:18:38.297Z,46.50
2018-06-23T21:21:05.122Z,46.40
2018-06-23T21:23:31.966Z,46.60
2018-06-23T21:25:58.818Z,46.70
2018-06-23T21:28:25.776Z,46.80
2018-06-23T21:30:52.596Z,46.70
2018-06-23T21:33:19.493Z,46.90
2018-06-23T21:35:46.891Z,47.00
2018-06-23T21:38:13.818Z,47.10
2018-06-23T21:40:40.831Z,47.10
2018-06-23T21:43:07.950Z,47.30
2018-06-23T21:45:35.319Z,47.30
2018-06-23T21:48:02.371Z,47.30
2018-06-23T21:50:29.795Z,47.30
2018-06-23T21:52:56.610Z,47.40
2018-06-23T21:55:23.641Z,48.10
2018-06-23T21:57:50.519Z,47.60
2018-06-23T22:00:17.344Z,47.50
2018-06-23T22:02:44.234Z,47.50
2018-06-23T22:05:11.218Z,47.50
2018-06-23T22:07:38.718Z,47.50
2018-06-23T22:10:05.773Z,47.60
2018-06-23T22:12:32.610Z,47.80
2018-06-23T22:14:59.631Z,47.80
2018-06-23T22:17:26.443Z,47.80
2018-06-23T22:19:53.266Z,47.90
2018-06-23T22:22:20.084Z,47.90
2018-06-23T22:24:46.981Z,47.90
2018-06-23T22:27:13.896Z,47.90
2018-06-23T22:29:40.752Z,48.00
2018-06-23T22:32:07.863Z,48.10
2018-06-23T22:34:34.769Z,48.00
2018-06-23T22:37:01.630Z,48.10
2018-06-23T22:39:28.473Z,48.00
2018-06-23T22:41:55.303Z,48.10
2018-06-23T22:44:22.141Z,48.10
2018-06-23T22:46:49.106Z,48.10
2018-06-23T22:49:15.906Z,48.10
2018-06-23T22:51:42.758Z,48.10
2018-06-23T22:54:09.716Z,48.10
2018-06-23T22:56:36.550Z,48.20
2018-06-23T22:59:03.372Z,48.10
2018-06-23T23:01:30.216Z,48.10
2018-06-23T23:03:57.132Z,48.10
2018-06-23T23:06:23.953Z,48.20
2018-06-23T23:08:50.772Z,48.10
2018-06-23T23:11:17.597Z,48.20
2018-06-23T23:13:44.457Z,48.20
2018-06-23T23:16:11.279Z,48.20
2018-06-23T23:18:38.182Z,48.10
2018-06-23T23:21:05.036Z,48.20
2018-06-23T23:23:31.862Z,48.20
2018-06-23T23:25:58.709Z,48.20
2018-06-23T23:28:25.537Z,48.10
2018-06-23T23:30:52.361Z,48.10
2018-06-23T23:33:19.177Z,48.10
2018-06-23T23:35:46.011Z,47.80
2018-06-23T23:38:12.830Z,48.20
2018-06-23T23:40:39.657Z,48.20
2018-06-23T23:43:06.469Z,48.30
2018-06-23T23:45:33.424Z,48.20
2018-06-23T23:48:00.267Z,47.90
2018-06-23T23:50:27.096Z,48.30
2018-06-23T23:52:53.909Z,48.20
2018-06-23T23:55:20.796Z,48.30
2018-06-23T23:57:47.628Z,48.30
